Terminal Aerodrome Forecast
Issued by NWS

Home | Current Version | Previous Version | Text Only | Print | Product List | Glossary On
Versions: 1 2 3 4 5 6 7 8 9 10 11 12 13 14 15 16 17 18 19 20 21
000
FTUS45 KSLC 070032 AAA
TAFEVW
TAF AMD
KEVW 070032Z 0701/0724 10010G18KT P6SM -SHRA SCT040 BKN060
      TEMPO 0701/0703 2SM SHRA OVC030
     FM070500 08010KT P6SM BKN070 BKN100
     FM071900 19010KT P6SM VCSH SCT050 BKN080=

USA.gov is the U.S. government's official web portal to all federal, state and local government web resources and services.